sensor_id;sensor_type;location;lat;lon;timestamp;P1;durP1;ratioP1;P2;durP2;ratioP2
74939;SDS011;63505;45.226;37.908;2022-11-06T00:01:06;34.85;;;16.27;;
74939;SDS011;63505;45.226;37.908;2022-11-06T00:03:33;34.88;;;17.08;;
74939;SDS011;63505;45.226;37.908;2022-11-06T00:05:59;37.72;;;15.68;;
74939;SDS011;63505;45.226;37.908;2022-11-06T00:08:48;39.72;;;17.60;;
74939;SDS011;63505;45.226;37.908;2022-11-06T00:11:15;42.22;;;17.55;;
74939;SDS011;63505;45.226;37.908;2022-11-06T00:13:42;44.58;;;19.02;;
74939;SDS011;63505;45.226;37.908;2022-11-06T00:16:10;85.60;;;27.15;;
74939;SDS011;63505;45.226;37.908;2022-11-06T00:18:37;98.68;;;23.73;;
74939;SDS011;63505;45.226;37.908;2022-11-06T00:21:07;86.57;;;19.95;;
74939;SDS011;63505;45.226;37.908;2022-11-06T00:23:48;82.22;;;18.60;;
74939;SDS011;63505;45.226;37.908;2022-11-06T00:26:16;67.57;;;16.70;;
74939;SDS011;63505;45.226;37.908;2022-11-06T00:28:44;51.13;;;14.85;;
74939;SDS011;63505;45.226;37.908;2022-11-06T00:31:11;61.60;;;14.55;;
74939;SDS011;63505;45.226;37.908;2022-11-06T00:33:39;53.45;;;15.10;;
74939;SDS011;63505;45.226;37.908;2022-11-06T00:36:06;68.20;;;32.70;;
74939;SDS011;63505;45.226;37.908;2022-11-06T00:38:34;39.78;;;15.07;;
74939;SDS011;63505;45.226;37.908;2022-11-06T00:41:04;53.22;;;14.48;;
74939;SDS011;63505;45.226;37.908;2022-11-06T00:43:31;43.90;;;14.45;;
74939;SDS011;63505;45.226;37.908;2022-11-06T00:48:32;71.40;;;15.02;;
74939;SDS011;63505;45.226;37.908;2022-11-06T00:51:32;51.08;;;17.80;;
74939;SDS011;63505;45.226;37.908;2022-11-06T00:53:54;50.38;;;15.95;;
74939;SDS011;63505;45.226;37.908;2022-11-06T00:56:26;32.55;;;15.02;;
74939;SDS011;63505;45.226;37.908;2022-11-06T00:58:53;29.55;;;13.38;;
74939;SDS011;63505;45.226;37.908;2022-11-06T01:01:21;40.78;;;15.55;;
74939;SDS011;63505;45.226;37.908;2022-11-06T01:03:59;38.22;;;15.20;;
74939;SDS011;63505;45.226;37.908;2022-11-06T01:06:27;37.38;;;15.10;;
74939;SDS011;63505;45.226;37.908;2022-11-06T01:08:56;25.23;;;12.18;;
74939;SDS011;63505;45.226;37.908;2022-11-06T01:11:32;25.65;;;12.68;;
74939;SDS011;63505;45.226;37.908;2022-11-06T01:14:01;27.17;;;13.15;;
74939;SDS011;63505;45.226;37.908;2022-11-06T01:16:29;47.53;;;14.18;;
74939;SDS011;63505;45.226;37.908;2022-11-06T01:18:55;19.95;;;10.07;;
74939;SDS011;63505;45.226;37.908;2022-11-06T01:21:29;21.75;;;12.43;;
74939;SDS011;63505;45.226;37.908;2022-11-06T01:24:01;25.75;;;12.00;;
74939;SDS011;63505;45.226;37.908;2022-11-06T01:26:30;27.52;;;12.95;;
74939;SDS011;63505;45.226;37.908;2022-11-06T01:28:56;39.75;;;11.65;;
74939;SDS011;63505;45.226;37.908;2022-11-06T01:31:24;17.83;;;10.50;;
74939;SDS011;63505;45.226;37.908;2022-11-06T01:33:53;8.30;;;4.07;;
74939;SDS011;63505;45.226;37.908;2022-11-06T01:36:20;21.35;;;9.77;;
74939;SDS011;63505;45.226;37.908;2022-11-06T01:38:48;22.38;;;11.27;;
74939;SDS011;63505;45.226;37.908;2022-11-06T01:41:21;24.83;;;9.23;;
74939;SDS011;63505;45.226;37.908;2022-11-06T01:43:59;19.20;;;9.25;;
74939;SDS011;63505;45.226;37.908;2022-11-06T01:46:51;8.82;;;4.65;;
74939;SDS011;63505;45.226;37.908;2022-11-06T01:49:17;18.65;;;9.40;;
74939;SDS011;63505;45.226;37.908;2022-11-06T01:51:47;17.15;;;7.22;;
74939;SDS011;63505;45.226;37.908;2022-11-06T01:54:17;7.25;;;2.95;;
74939;SDS011;63505;45.226;37.908;2022-11-06T01:56:45;5.07;;;3.33;;
74939;SDS011;63505;45.226;37.908;2022-11-06T01:59:15;12.25;;;6.43;;
74939;SDS011;63505;45.226;37.908;2022-11-06T02:01:43;9.07;;;4.93;;
74939;SDS011;63505;45.226;37.908;2022-11-06T02:06:45;13.63;;;4.50;;
74939;SDS011;63505;45.226;37.908;2022-11-06T02:09:12;10.80;;;6.10;;
74939;SDS011;63505;45.226;37.908;2022-11-06T02:11:43;18.38;;;12.27;;
74939;SDS011;63505;45.226;37.908;2022-11-06T02:25:19;4.93;;;2.80;;
74939;SDS011;63505;45.226;37.908;2022-11-06T02:27:53;15.18;;;6.53;;
74939;SDS011;63505;45.226;37.908;2022-11-06T02:30:27;13.63;;;7.20;;
74939;SDS011;63505;45.226;37.908;2022-11-06T02:32:57;18.27;;;9.43;;
74939;SDS011;63505;45.226;37.908;2022-11-06T02:35:27;21.83;;;11.43;;
74939;SDS011;63505;45.226;37.908;2022-11-06T02:37:57;22.73;;;11.48;;
74939;SDS011;63505;45.226;37.908;2022-11-06T02:40:38;22.17;;;9.07;;
74939;SDS011;63505;45.226;37.908;2022-11-06T02:43:07;26.92;;;11.70;;
74939;SDS011;63505;45.226;37.908;2022-11-06T02:48:22;27.85;;;11.55;;
74939;SDS011;63505;45.226;37.908;2022-11-06T02:50:54;21.00;;;9.45;;
74939;SDS011;63505;45.226;37.908;2022-11-06T02:53:23;30.08;;;12.13;;
74939;SDS011;63505;45.226;37.908;2022-11-06T02:55:52;18.52;;;8.75;;
74939;SDS011;63505;45.226;37.908;2022-11-06T02:58:35;18.55;;;9.65;;
74939;SDS011;63505;45.226;37.908;2022-11-06T03:01:20;16.35;;;8.85;;
74939;SDS011;63505;45.226;37.908;2022-11-06T03:03:53;13.57;;;7.53;;
74939;SDS011;63505;45.226;37.908;2022-11-06T03:06:34;15.20;;;7.30;;
74939;SDS011;63505;45.226;37.908;2022-11-06T03:09:26;26.45;;;9.75;;
74939;SDS011;63505;45.226;37.908;2022-11-06T03:11:58;10.35;;;4.65;;
74939;SDS011;63505;45.226;37.908;2022-11-06T03:14:33;17.80;;;8.13;;
74939;SDS011;63505;45.226;37.908;2022-11-06T03:17:13;19.80;;;8.60;;
74939;SDS011;63505;45.226;37.908;2022-11-06T03:25:14;15.27;;;7.65;;
74939;SDS011;63505;45.226;37.908;2022-11-06T03:28:09;17.63;;;6.80;;
74939;SDS011;63505;45.226;37.908;2022-11-06T03:30:41;8.50;;;3.95;;
74939;SDS011;63505;45.226;37.908;2022-11-06T03:33:16;16.92;;;7.03;;
74939;SDS011;63505;45.226;37.908;2022-11-06T03:38:32;12.60;;;6.32;;
74939;SDS011;63505;45.226;37.908;2022-11-06T03:41:03;12.85;;;6.05;;
74939;SDS011;63505;45.226;37.908;2022-11-06T03:43:35;12.40;;;7.82;;
74939;SDS011;63505;45.226;37.908;2022-11-06T03:46:03;6.80;;;3.35;;
74939;SDS011;63505;45.226;37.908;2022-11-06T03:51:12;20.45;;;7.15;;
74939;SDS011;63505;45.226;37.908;2022-11-06T03:53:50;7.40;;;3.95;;
74939;SDS011;63505;45.226;37.908;2022-11-06T03:59:02;15.40;;;6.22;;
74939;SDS011;63505;45.226;37.908;2022-11-06T04:01:31;13.30;;;5.18;;
74939;SDS011;63505;45.226;37.908;2022-11-06T04:04:01;18.05;;;7.82;;
74939;SDS011;63505;45.226;37.908;2022-11-06T04:06:41;8.90;;;3.05;;
74939;SDS011;63505;45.226;37.908;2022-11-06T04:09:12;6.85;;;3.42;;
74939;SDS011;63505;45.226;37.908;2022-11-06T04:11:58;15.98;;;5.32;;
74939;SDS011;63505;45.226;37.908;2022-11-06T04:14:45;5.65;;;3.47;;
74939;SDS011;63505;45.226;37.908;2022-11-06T04:17:14;6.03;;;4.38;;
74939;SDS011;63505;45.226;37.908;2022-11-06T04:19:44;18.00;;;7.97;;
74939;SDS011;63505;45.226;37.908;2022-11-06T04:25:03;6.63;;;3.42;;
74939;SDS011;63505;45.226;37.908;2022-11-06T04:33:47;5.47;;;4.30;;
74939;SDS011;63505;45.226;37.908;2022-11-06T04:36:39;11.77;;;4.07;;
74939;SDS011;63505;45.226;37.908;2022-11-06T04:39:18;6.38;;;3.30;;
74939;SDS011;63505;45.226;37.908;2022-11-06T04:41:58;11.07;;;4.97;;
74939;SDS011;63505;45.226;37.908;2022-11-06T04:44:31;20.00;;;7.93;;
74939;SDS011;63505;45.226;37.908;2022-11-06T04:47:08;7.00;;;4.43;;
74939;SDS011;63505;45.226;37.908;2022-11-06T04:49:38;14.35;;;7.15;;
74939;SDS011;63505;45.226;37.908;2022-11-06T04:52:07;10.55;;;4.68;;
74939;SDS011;63505;45.226;37.908;2022-11-06T04:54:37;11.60;;;5.22;;
74939;SDS011;63505;45.226;37.908;2022-11-06T04:57:03;14.60;;;7.57;;
74939;SDS011;63505;45.226;37.908;2022-11-06T04:59:30;14.27;;;6.65;;
74939;SDS011;63505;45.226;37.908;2022-11-06T05:02:00;7.95;;;3.90;;
74939;SDS011;63505;45.226;37.908;2022-11-06T05:04:26;9.38;;;5.78;;
74939;SDS011;63505;45.226;37.908;2022-11-06T05:06:51;9.48;;;4.72;;
74939;SDS011;63505;45.226;37.908;2022-11-06T05:09:17;13.40;;;4.93;;
74939;SDS011;63505;45.226;37.908;2022-11-06T05:11:43;12.10;;;5.15;;
74939;SDS011;63505;45.226;37.908;2022-11-06T05:14:09;7.15;;;3.90;;
74939;SDS011;63505;45.226;37.908;2022-11-06T05:16:35;9.02;;;4.03;;
74939;SDS011;63505;45.226;37.908;2022-11-06T05:19:02;7.88;;;4.00;;
74939;SDS011;63505;45.226;37.908;2022-11-06T05:21:28;7.68;;;4.85;;
74939;SDS011;63505;45.226;37.908;2022-11-06T05:24:13;10.05;;;4.10;;
74939;SDS011;63505;45.226;37.908;2022-11-06T05:26:39;7.15;;;4.75;;
74939;SDS011;63505;45.226;37.908;2022-11-06T05:29:05;16.17;;;8.35;;
74939;SDS011;63505;45.226;37.908;2022-11-06T05:31:31;7.90;;;4.88;;
74939;SDS011;63505;45.226;37.908;2022-11-06T05:33:57;8.57;;;3.50;;
74939;SDS011;63505;45.226;37.908;2022-11-06T05:36:23;12.98;;;5.88;;
74939;SDS011;63505;45.226;37.908;2022-11-06T05:38:49;14.23;;;6.75;;
74939;SDS011;63505;45.226;37.908;2022-11-06T05:41:15;3.88;;;2.10;;
74939;SDS011;63505;45.226;37.908;2022-11-06T05:43:41;9.50;;;5.43;;
74939;SDS011;63505;45.226;37.908;2022-11-06T05:46:08;5.07;;;3.80;;
74939;SDS011;63505;45.226;37.908;2022-11-06T05:48:34;9.98;;;5.05;;
74939;SDS011;63505;45.226;37.908;2022-11-06T05:51:03;9.55;;;5.82;;
74939;SDS011;63505;45.226;37.908;2022-11-06T05:53:33;10.45;;;4.20;;
74939;SDS011;63505;45.226;37.908;2022-11-06T05:55:59;9.02;;;4.90;;
74939;SDS011;63505;45.226;37.908;2022-11-06T05:58:26;10.07;;;5.25;;
74939;SDS011;63505;45.226;37.908;2022-11-06T06:00:53;13.65;;;7.10;;
74939;SDS011;63505;45.226;37.908;2022-11-06T06:03:20;15.20;;;5.32;;
74939;SDS011;63505;45.226;37.908;2022-11-06T06:05:46;7.20;;;2.67;;
74939;SDS011;63505;45.226;37.908;2022-11-06T06:08:12;13.75;;;5.18;;
74939;SDS011;63505;45.226;37.908;2022-11-06T06:10:42;12.70;;;7.00;;
74939;SDS011;63505;45.226;37.908;2022-11-06T06:13:09;15.98;;;6.95;;
74939;SDS011;63505;45.226;37.908;2022-11-06T06:15:39;10.13;;;6.85;;
74939;SDS011;63505;45.226;37.908;2022-11-06T06:18:05;8.75;;;4.45;;
74939;SDS011;63505;45.226;37.908;2022-11-06T06:20:33;13.00;;;6.97;;
74939;SDS011;63505;45.226;37.908;2022-11-06T06:22:59;13.68;;;6.82;;
74939;SDS011;63505;45.226;37.908;2022-11-06T06:25:26;10.50;;;6.97;;
74939;SDS011;63505;45.226;37.908;2022-11-06T06:27:53;12.90;;;6.53;;
74939;SDS011;63505;45.226;37.908;2022-11-06T06:30:19;16.48;;;7.20;;
74939;SDS011;63505;45.226;37.908;2022-11-06T06:32:47;9.57;;;5.15;;
74939;SDS011;63505;45.226;37.908;2022-11-06T06:35:14;9.40;;;3.90;;
74939;SDS011;63505;45.226;37.908;2022-11-06T06:37:42;10.68;;;5.50;;
74939;SDS011;63505;45.226;37.908;2022-11-06T06:40:18;17.08;;;6.50;;
74939;SDS011;63505;45.226;37.908;2022-11-06T06:42:44;12.98;;;6.57;;
74939;SDS011;63505;45.226;37.908;2022-11-06T06:45:10;12.63;;;6.15;;
74939;SDS011;63505;45.226;37.908;2022-11-06T06:47:36;19.80;;;6.55;;
74939;SDS011;63505;45.226;37.908;2022-11-06T06:50:02;12.95;;;6.38;;
74939;SDS011;63505;45.226;37.908;2022-11-06T06:52:28;18.27;;;6.10;;
74939;SDS011;63505;45.226;37.908;2022-11-06T06:54:54;15.57;;;6.75;;
74939;SDS011;63505;45.226;37.908;2022-11-06T06:57:20;28.00;;;7.65;;
74939;SDS011;63505;45.226;37.908;2022-11-06T06:59:46;9.63;;;4.25;;
74939;SDS011;63505;45.226;37.908;2022-11-06T07:02:12;8.52;;;5.13;;
74939;SDS011;63505;45.226;37.908;2022-11-06T07:04:38;11.63;;;6.80;;
74939;SDS011;63505;45.226;37.908;2022-11-06T07:07:04;15.77;;;6.60;;
74939;SDS011;63505;45.226;37.908;2022-11-06T07:09:30;21.45;;;10.32;;
74939;SDS011;63505;45.226;37.908;2022-11-06T07:11:56;13.70;;;7.30;;
74939;SDS011;63505;45.226;37.908;2022-11-06T07:14:23;13.52;;;5.85;;
74939;SDS011;63505;45.226;37.908;2022-11-06T07:16:48;17.38;;;8.50;;
74939;SDS011;63505;45.226;37.908;2022-11-06T07:19:14;19.05;;;10.50;;
74939;SDS011;63505;45.226;37.908;2022-11-06T07:21:40;22.70;;;9.80;;
74939;SDS011;63505;45.226;37.908;2022-11-06T07:24:06;15.23;;;5.95;;
74939;SDS011;63505;45.226;37.908;2022-11-06T07:26:32;12.02;;;6.72;;
74939;SDS011;63505;45.226;37.908;2022-11-06T07:28:58;25.23;;;12.23;;
74939;SDS011;63505;45.226;37.908;2022-11-06T07:31:24;15.52;;;8.65;;
74939;SDS011;63505;45.226;37.908;2022-11-06T07:33:50;16.70;;;8.20;;
74939;SDS011;63505;45.226;37.908;2022-11-06T07:36:16;18.50;;;8.70;;
74939;SDS011;63505;45.226;37.908;2022-11-06T07:38:42;15.20;;;7.43;;
74939;SDS011;63505;45.226;37.908;2022-11-06T07:41:10;7.55;;;4.38;;
74939;SDS011;63505;45.226;37.908;2022-11-06T07:43:37;12.32;;;5.50;;
74939;SDS011;63505;45.226;37.908;2022-11-06T07:46:05;9.75;;;3.67;;
74939;SDS011;63505;45.226;37.908;2022-11-06T07:48:34;13.27;;;7.05;;
74939;SDS011;63505;45.226;37.908;2022-11-06T07:51:03;11.60;;;4.75;;
74939;SDS011;63505;45.226;37.908;2022-11-06T07:53:31;21.80;;;10.07;;
74939;SDS011;63505;45.226;37.908;2022-11-06T07:55:57;13.80;;;6.80;;
74939;SDS011;63505;45.226;37.908;2022-11-06T07:58:24;18.35;;;7.35;;
74939;SDS011;63505;45.226;37.908;2022-11-06T08:00:54;25.65;;;12.43;;
74939;SDS011;63505;45.226;37.908;2022-11-06T08:03:22;8.85;;;4.65;;
74939;SDS011;63505;45.226;37.908;2022-11-06T08:05:49;15.65;;;7.78;;
74939;SDS011;63505;45.226;37.908;2022-11-06T08:08:15;11.98;;;7.20;;
74939;SDS011;63505;45.226;37.908;2022-11-06T08:10:42;20.45;;;10.23;;
74939;SDS011;63505;45.226;37.908;2022-11-06T08:13:08;14.02;;;6.38;;
74939;SDS011;63505;45.226;37.908;2022-11-06T08:15:38;12.38;;;5.22;;
74939;SDS011;63505;45.226;37.908;2022-11-06T08:18:05;8.60;;;5.20;;
74939;SDS011;63505;45.226;37.908;2022-11-06T08:20:32;9.35;;;5.80;;
74939;SDS011;63505;45.226;37.908;2022-11-06T08:22:59;8.02;;;3.42;;
74939;SDS011;63505;45.226;37.908;2022-11-06T08:25:27;11.88;;;6.45;;
74939;SDS011;63505;45.226;37.908;2022-11-06T08:27:54;13.40;;;7.95;;
74939;SDS011;63505;45.226;37.908;2022-11-06T08:30:24;16.33;;;7.80;;
74939;SDS011;63505;45.226;37.908;2022-11-06T08:32:51;11.90;;;7.03;;
74939;SDS011;63505;45.226;37.908;2022-11-06T08:35:17;14.27;;;7.25;;
74939;SDS011;63505;45.226;37.908;2022-11-06T08:37:43;4.90;;;3.75;;
74939;SDS011;63505;45.226;37.908;2022-11-06T08:40:09;15.38;;;7.85;;
74939;SDS011;63505;45.226;37.908;2022-11-06T08:42:35;11.70;;;4.70;;
74939;SDS011;63505;45.226;37.908;2022-11-06T08:45:01;14.35;;;4.45;;
74939;SDS011;63505;45.226;37.908;2022-11-06T08:47:28;8.07;;;4.72;;
74939;SDS011;63505;45.226;37.908;2022-11-06T08:49:54;9.18;;;4.95;;
74939;SDS011;63505;45.226;37.908;2022-11-06T08:52:20;11.15;;;5.90;;
74939;SDS011;63505;45.226;37.908;2022-11-06T08:54:46;9.80;;;5.50;;
74939;SDS011;63505;45.226;37.908;2022-11-06T08:57:12;7.70;;;5.50;;
74939;SDS011;63505;45.226;37.908;2022-11-06T08:59:38;10.25;;;5.75;;
74939;SDS011;63505;45.226;37.908;2022-11-06T09:02:04;8.60;;;5.75;;
74939;SDS011;63505;45.226;37.908;2022-11-06T09:04:30;6.45;;;4.20;;
74939;SDS011;63505;45.226;37.908;2022-11-06T09:06:56;13.40;;;6.03;;
74939;SDS011;63505;45.226;37.908;2022-11-06T09:09:22;13.75;;;8.80;;
74939;SDS011;63505;45.226;37.908;2022-11-06T09:11:59;15.10;;;7.15;;
74939;SDS011;63505;45.226;37.908;2022-11-06T09:14:26;13.73;;;7.63;;
74939;SDS011;63505;45.226;37.908;2022-11-06T09:16:52;13.98;;;6.35;;
74939;SDS011;63505;45.226;37.908;2022-11-06T09:19:18;10.27;;;5.68;;
74939;SDS011;63505;45.226;37.908;2022-11-06T09:21:45;5.75;;;4.15;;
74939;SDS011;63505;45.226;37.908;2022-11-06T09:24:11;6.22;;;3.88;;
74939;SDS011;63505;45.226;37.908;2022-11-06T09:26:37;7.65;;;4.47;;
74939;SDS011;63505;45.226;37.908;2022-11-06T09:29:03;11.98;;;5.70;;
74939;SDS011;63505;45.226;37.908;2022-11-06T09:31:29;13.07;;;7.40;;
74939;SDS011;63505;45.226;37.908;2022-11-06T09:33:55;13.75;;;6.65;;
74939;SDS011;63505;45.226;37.908;2022-11-06T09:36:21;7.68;;;4.60;;
74939;SDS011;63505;45.226;37.908;2022-11-06T09:38:47;7.97;;;5.45;;
74939;SDS011;63505;45.226;37.908;2022-11-06T09:41:17;11.40;;;5.97;;
74939;SDS011;63505;45.226;37.908;2022-11-06T09:46:43;7.93;;;3.47;;
74939;SDS011;63505;45.226;37.908;2022-11-06T09:49:19;15.32;;;6.10;;
74939;SDS011;63505;45.226;37.908;2022-11-06T09:54:36;5.78;;;4.15;;
74939;SDS011;63505;45.226;37.908;2022-11-06T09:57:10;8.27;;;5.13;;
74939;SDS011;63505;45.226;37.908;2022-11-06T09:59:57;13.75;;;5.65;;
74939;SDS011;63505;45.226;37.908;2022-11-06T10:02:31;11.38;;;5.03;;
74939;SDS011;63505;45.226;37.908;2022-11-06T10:07:48;13.20;;;5.20;;
74939;SDS011;63505;45.226;37.908;2022-11-06T10:23:47;10.45;;;6.32;;
74939;SDS011;63505;45.226;37.908;2022-11-06T10:26:24;10.40;;;5.85;;
74939;SDS011;63505;45.226;37.908;2022-11-06T10:38:51;9.38;;;3.70;;
74939;SDS011;63505;45.226;37.908;2022-11-06T10:41:27;12.00;;;4.30;;
74939;SDS011;63505;45.226;37.908;2022-11-06T10:44:05;9.10;;;4.68;;
74939;SDS011;63505;45.226;37.908;2022-11-06T10:46:39;14.43;;;6.65;;
74939;SDS011;63505;45.226;37.908;2022-11-06T10:59:48;9.73;;;4.00;;
74939;SDS011;63505;45.226;37.908;2022-11-06T11:02:22;7.68;;;3.95;;
74939;SDS011;63505;45.226;37.908;2022-11-06T11:04:52;10.50;;;4.35;;
74939;SDS011;63505;45.226;37.908;2022-11-06T11:07:18;11.80;;;4.05;;
74939;SDS011;63505;45.226;37.908;2022-11-06T11:09:44;10.88;;;4.95;;
74939;SDS011;63505;45.226;37.908;2022-11-06T11:12:21;13.27;;;5.97;;
74939;SDS011;63505;45.226;37.908;2022-11-06T11:17:40;7.50;;;4.15;;
74939;SDS011;63505;45.226;37.908;2022-11-06T11:20:28;11.23;;;6.32;;
74939;SDS011;63505;45.226;37.908;2022-11-06T11:25:50;8.63;;;4.00;;
74939;SDS011;63505;45.226;37.908;2022-11-06T11:28:26;9.65;;;4.65;;
74939;SDS011;63505;45.226;37.908;2022-11-06T11:33:26;8.50;;;4.10;;
74939;SDS011;63505;45.226;37.908;2022-11-06T11:35:52;13.00;;;4.65;;
74939;SDS011;63505;45.226;37.908;2022-11-06T11:38:19;8.25;;;4.47;;
74939;SDS011;63505;45.226;37.908;2022-11-06T11:40:47;7.30;;;4.45;;
74939;SDS011;63505;45.226;37.908;2022-11-06T11:46:02;7.40;;;3.28;;
74939;SDS011;63505;45.226;37.908;2022-11-06T11:48:47;11.88;;;5.15;;
74939;SDS011;63505;45.226;37.908;2022-11-06T11:53:48;8.18;;;3.95;;
74939;SDS011;63505;45.226;37.908;2022-11-06T11:56:15;11.88;;;4.50;;
74939;SDS011;63505;45.226;37.908;2022-11-06T11:59:01;5.63;;;3.20;;
74939;SDS011;63505;45.226;37.908;2022-11-06T12:01:35;7.15;;;4.32;;
74939;SDS011;63505;45.226;37.908;2022-11-06T12:04:13;9.13;;;4.55;;
74939;SDS011;63505;45.226;37.908;2022-11-06T12:07:02;6.82;;;4.55;;
74939;SDS011;63505;45.226;37.908;2022-11-06T12:09:31;12.38;;;5.53;;
74939;SDS011;63505;45.226;37.908;2022-11-06T12:12:04;9.60;;;4.38;;
74939;SDS011;63505;45.226;37.908;2022-11-06T12:14:35;7.45;;;4.10;;
74939;SDS011;63505;45.226;37.908;2022-11-06T12:17:16;8.10;;;3.45;;
74939;SDS011;63505;45.226;37.908;2022-11-06T12:19:47;4.30;;;2.78;;
74939;SDS011;63505;45.226;37.908;2022-11-06T12:22:19;13.85;;;7.10;;
74939;SDS011;63505;45.226;37.908;2022-11-06T12:27:35;10.05;;;4.93;;
74939;SDS011;63505;45.226;37.908;2022-11-06T12:30:13;7.72;;;4.05;;
74939;SDS011;63505;45.226;37.908;2022-11-06T12:33:42;20.23;;;5.13;;
74939;SDS011;63505;45.226;37.908;2022-11-06T12:36:01;12.77;;;6.55;;
74939;SDS011;63505;45.226;37.908;2022-11-06T12:38:45;16.05;;;7.90;;
74939;SDS011;63505;45.226;37.908;2022-11-06T12:41:21;7.35;;;3.80;;
74939;SDS011;63505;45.226;37.908;2022-11-06T12:43:52;12.35;;;5.18;;
74939;SDS011;63505;45.226;37.908;2022-11-06T13:00:17;9.85;;;5.20;;
74939;SDS011;63505;45.226;37.908;2022-11-06T13:05:54;6.88;;;4.25;;
74939;SDS011;63505;45.226;37.908;2022-11-06T13:18:50;5.38;;;3.45;;
74939;SDS011;63505;45.226;37.908;2022-11-06T13:21:27;6.97;;;3.22;;
74939;SDS011;63505;45.226;37.908;2022-11-06T13:29:40;8.27;;;3.50;;
74939;SDS011;63505;45.226;37.908;2022-11-06T13:32:09;8.70;;;3.97;;
74939;SDS011;63505;45.226;37.908;2022-11-06T13:34:40;4.43;;;2.55;;
74939;SDS011;63505;45.226;37.908;2022-11-06T13:37:16;6.57;;;3.13;;
74939;SDS011;63505;45.226;37.908;2022-11-06T13:39:52;6.25;;;2.85;;
74939;SDS011;63505;45.226;37.908;2022-11-06T13:42:32;6.07;;;2.78;;
74939;SDS011;63505;45.226;37.908;2022-11-06T13:45:03;6.88;;;3.30;;
74939;SDS011;63505;45.226;37.908;2022-11-06T13:47:34;5.53;;;2.13;;
74939;SDS011;63505;45.226;37.908;2022-11-06T13:52:58;10.85;;;5.05;;
74939;SDS011;63505;45.226;37.908;2022-11-06T13:58:43;4.15;;;2.30;;
74939;SDS011;63505;45.226;37.908;2022-11-06T14:06:40;13.18;;;4.13;;
74939;SDS011;63505;45.226;37.908;2022-11-06T14:09:18;8.32;;;3.42;;
74939;SDS011;63505;45.226;37.908;2022-11-06T14:11:51;6.07;;;2.67;;
74939;SDS011;63505;45.226;37.908;2022-11-06T14:16:49;4.00;;;2.17;;
74939;SDS011;63505;45.226;37.908;2022-11-06T14:22:30;7.25;;;3.08;;
74939;SDS011;63505;45.226;37.908;2022-11-06T14:24:57;4.03;;;2.17;;
74939;SDS011;63505;45.226;37.908;2022-11-06T14:29:57;13.43;;;6.53;;
74939;SDS011;63505;45.226;37.908;2022-11-06T14:32:39;9.90;;;5.88;;
74939;SDS011;63505;45.226;37.908;2022-11-06T14:38:43;7.70;;;3.30;;
74939;SDS011;63505;45.226;37.908;2022-11-06T14:40:55;10.80;;;5.88;;
74939;SDS011;63505;45.226;37.908;2022-11-06T14:43:34;12.63;;;6.07;;
74939;SDS011;63505;45.226;37.908;2022-11-06T14:46:18;12.13;;;5.18;;
74939;SDS011;63505;45.226;37.908;2022-11-06T14:48:48;10.30;;;4.57;;
74939;SDS011;63505;45.226;37.908;2022-11-06T14:51:16;9.70;;;5.18;;
74939;SDS011;63505;45.226;37.908;2022-11-06T14:53:52;11.68;;;5.10;;
74939;SDS011;63505;45.226;37.908;2022-11-06T14:56:25;9.60;;;4.85;;
74939;SDS011;63505;45.226;37.908;2022-11-06T14:58:57;5.85;;;3.38;;
74939;SDS011;63505;45.226;37.908;2022-11-06T15:01:28;9.65;;;5.22;;
74939;SDS011;63505;45.226;37.908;2022-11-06T15:04:14;16.35;;;7.75;;
74939;SDS011;63505;45.226;37.908;2022-11-06T15:06:46;5.38;;;3.45;;
74939;SDS011;63505;45.226;37.908;2022-11-06T15:16:54;6.85;;;3.30;;
74939;SDS011;63505;45.226;37.908;2022-11-06T15:19:42;7.13;;;3.90;;
74939;SDS011;63505;45.226;37.908;2022-11-06T15:28:00;9.05;;;3.58;;
74939;SDS011;63505;45.226;37.908;2022-11-06T15:30:39;8.45;;;3.55;;
74939;SDS011;63505;45.226;37.908;2022-11-06T15:33:16;6.28;;;3.38;;
74939;SDS011;63505;45.226;37.908;2022-11-06T15:35:53;9.27;;;5.07;;
74939;SDS011;63505;45.226;37.908;2022-11-06T15:38:24;6.70;;;2.92;;
74939;SDS011;63505;45.226;37.908;2022-11-06T15:41:00;16.58;;;6.57;;
74939;SDS011;63505;45.226;37.908;2022-11-06T15:43:30;9.02;;;4.80;;
74939;SDS011;63505;45.226;37.908;2022-11-06T15:46:21;13.80;;;5.40;;
74939;SDS011;63505;45.226;37.908;2022-11-06T15:54:31;4.68;;;3.13;;
74939;SDS011;63505;45.226;37.908;2022-11-06T15:57:21;7.00;;;2.90;;
74939;SDS011;63505;45.226;37.908;2022-11-06T16:00:38;7.05;;;3.67;;
74939;SDS011;63505;45.226;37.908;2022-11-06T16:02:48;7.88;;;3.47;;
74939;SDS011;63505;45.226;37.908;2022-11-06T16:05:24;9.82;;;4.15;;
74939;SDS011;63505;45.226;37.908;2022-11-06T16:07:55;11.52;;;5.13;;
74939;SDS011;63505;45.226;37.908;2022-11-06T16:10:22;10.23;;;5.07;;
74939;SDS011;63505;45.226;37.908;2022-11-06T16:12:49;7.20;;;4.18;;
74939;SDS011;63505;45.226;37.908;2022-11-06T16:23:35;5.72;;;3.25;;
74939;SDS011;63505;45.226;37.908;2022-11-06T16:26:07;13.18;;;5.60;;
74939;SDS011;63505;45.226;37.908;2022-11-06T16:28:35;9.35;;;3.60;;
74939;SDS011;63505;45.226;37.908;2022-11-06T16:31:15;6.43;;;3.08;;
74939;SDS011;63505;45.226;37.908;2022-11-06T16:34:00;10.55;;;4.93;;
74939;SDS011;63505;45.226;37.908;2022-11-06T16:36:56;5.65;;;3.53;;
74939;SDS011;63505;45.226;37.908;2022-11-06T16:44:27;10.70;;;4.18;;
74939;SDS011;63505;45.226;37.908;2022-11-06T16:52:41;11.32;;;4.30;;
74939;SDS011;63505;45.226;37.908;2022-11-06T16:57:43;7.00;;;3.58;;
74939;SDS011;63505;45.226;37.908;2022-11-06T17:02:49;5.22;;;3.28;;
74939;SDS011;63505;45.226;37.908;2022-11-06T17:05:21;15.15;;;5.13;;
74939;SDS011;63505;45.226;37.908;2022-11-06T17:08:04;9.90;;;6.65;;
74939;SDS011;63505;45.226;37.908;2022-11-06T17:10:44;9.65;;;3.22;;
74939;SDS011;63505;45.226;37.908;2022-11-06T17:15:53;10.98;;;3.95;;
74939;SDS011;63505;45.226;37.908;2022-11-06T17:18:33;5.60;;;3.60;;
74939;SDS011;63505;45.226;37.908;2022-11-06T17:21:02;6.18;;;3.15;;
74939;SDS011;63505;45.226;37.908;2022-11-06T17:23:33;3.38;;;1.98;;
74939;SDS011;63505;45.226;37.908;2022-11-06T17:26:01;5.28;;;2.97;;
74939;SDS011;63505;45.226;37.908;2022-11-06T17:28:35;4.63;;;2.65;;
74939;SDS011;63505;45.226;37.908;2022-11-06T17:31:03;11.65;;;4.05;;
74939;SDS011;63505;45.226;37.908;2022-11-06T17:33:30;6.78;;;4.38;;
74939;SDS011;63505;45.226;37.908;2022-11-06T17:35:59;4.93;;;2.95;;
74939;SDS011;63505;45.226;37.908;2022-11-06T17:38:26;10.32;;;5.22;;
74939;SDS011;63505;45.226;37.908;2022-11-06T17:40:53;9.38;;;4.47;;
74939;SDS011;63505;45.226;37.908;2022-11-06T17:43:20;10.18;;;3.65;;
74939;SDS011;63505;45.226;37.908;2022-11-06T17:45:46;4.93;;;2.40;;
74939;SDS011;63505;45.226;37.908;2022-11-06T17:48:15;6.93;;;3.00;;
74939;SDS011;63505;45.226;37.908;2022-11-06T17:53:28;5.43;;;2.60;;
74939;SDS011;63505;45.226;37.908;2022-11-06T17:55:56;6.88;;;3.78;;
74939;SDS011;63505;45.226;37.908;2022-11-06T17:58:26;7.00;;;4.15;;
74939;SDS011;63505;45.226;37.908;2022-11-06T18:00:52;4.22;;;2.50;;
74939;SDS011;63505;45.226;37.908;2022-11-06T18:03:18;7.10;;;3.25;;
74939;SDS011;63505;45.226;37.908;2022-11-06T18:08:14;8.63;;;4.38;;
74939;SDS011;63505;45.226;37.908;2022-11-06T18:10:41;7.30;;;3.75;;
74939;SDS011;63505;45.226;37.908;2022-11-06T18:13:08;5.03;;;3.67;;
74939;SDS011;63505;45.226;37.908;2022-11-06T18:15:35;7.07;;;3.10;;